sensor_id;sensor_type;location;lat;lon;timestamp;P1;durP1;ratioP1;P2;durP2;ratioP2
23334;SDS011;11839;48.598;8.870;2023-08-24T00:00:16;0.00;;;0.00;;
23334;SDS011;11839;48.598;8.870;2023-08-24T00:02:43;0.00;;;0.00;;
23334;SDS011;11839;48.598;8.870;2023-08-24T00:05:10;0.03;;;0.03;;
23334;SDS011;11839;48.598;8.870;2023-08-24T00:07:38;0.00;;;0.00;;
23334;SDS011;11839;48.598;8.870;2023-08-24T00:10:05;0.00;;;0.00;;
23334;SDS011;11839;48.598;8.870;2023-08-24T00:12:32;0.10;;;0.10;;
23334;SDS011;11839;48.598;8.870;2023-08-24T00:15:00;0.00;;;0.00;;
23334;SDS011;11839;48.598;8.870;2023-08-24T00:17:29;0.00;;;0.00;;
23334;SDS011;11839;48.598;8.870;2023-08-24T00:19:55;0.00;;;0.00;;
23334;SDS011;11839;48.598;8.870;2023-08-24T00:22:22;0.03;;;0.03;;
23334;SDS011;11839;48.598;8.870;2023-08-24T00:24:49;0.00;;;0.00;;
23334;SDS011;11839;48.598;8.870;2023-08-24T00:27:16;0.00;;;0.00;;
23334;SDS011;11839;48.598;8.870;2023-08-24T00:29:43;0.00;;;0.00;;
23334;SDS011;11839;48.598;8.870;2023-08-24T00:32:10;0.00;;;0.00;;
23334;SDS011;11839;48.598;8.870;2023-08-24T00:34:38;0.00;;;0.00;;
23334;SDS011;11839;48.598;8.870;2023-08-24T00:37:04;4.85;;;3.97;;
23334;SDS011;11839;48.598;8.870;2023-08-24T00:39:31;1.58;;;1.55;;
23334;SDS011;11839;48.598;8.870;2023-08-24T00:41:58;0.00;;;0.00;;
23334;SDS011;11839;48.598;8.870;2023-08-24T00:44:25;0.00;;;0.00;;
23334;SDS011;11839;48.598;8.870;2023-08-24T00:46:52;0.00;;;0.00;;
23334;SDS011;11839;48.598;8.870;2023-08-24T00:49:19;0.00;;;0.00;;
23334;SDS011;11839;48.598;8.870;2023-08-24T00:51:48;0.00;;;0.00;;
23334;SDS011;11839;48.598;8.870;2023-08-24T00:54:15;0.08;;;0.08;;
23334;SDS011;11839;48.598;8.870;2023-08-24T00:56:43;0.00;;;0.00;;
23334;SDS011;11839;48.598;8.870;2023-08-24T00:59:10;0.10;;;0.10;;
23334;SDS011;11839;48.598;8.870;2023-08-24T01:01:37;0.00;;;0.00;;
23334;SDS011;11839;48.598;8.870;2023-08-24T01:04:05;0.00;;;0.00;;
23334;SDS011;11839;48.598;8.870;2023-08-24T01:06:32;0.00;;;0.00;;
23334;SDS011;11839;48.598;8.870;2023-08-24T01:09:00;0.00;;;0.00;;
23334;SDS011;11839;48.598;8.870;2023-08-24T01:11:29;0.05;;;0.05;;
23334;SDS011;11839;48.598;8.870;2023-08-24T01:14:07;0.00;;;0.00;;
23334;SDS011;11839;48.598;8.870;2023-08-24T01:16:39;0.00;;;0.00;;
23334;SDS011;11839;48.598;8.870;2023-08-24T01:19:15;0.00;;;0.00;;
23334;SDS011;11839;48.598;8.870;2023-08-24T01:21:52;0.00;;;0.00;;
23334;SDS011;11839;48.598;8.870;2023-08-24T01:24:25;0.00;;;0.00;;
23334;SDS011;11839;48.598;8.870;2023-08-24T01:26:58;0.00;;;0.00;;
23334;SDS011;11839;48.598;8.870;2023-08-24T01:29:26;0.00;;;0.00;;
23334;SDS011;11839;48.598;8.870;2023-08-24T01:31:54;0.00;;;0.00;;
23334;SDS011;11839;48.598;8.870;2023-08-24T01:34:21;0.00;;;0.00;;
23334;SDS011;11839;48.598;8.870;2023-08-24T01:36:47;0.00;;;0.00;;
23334;SDS011;11839;48.598;8.870;2023-08-24T01:39:17;0.00;;;0.00;;
23334;SDS011;11839;48.598;8.870;2023-08-24T01:41:54;0.00;;;0.00;;
23334;SDS011;11839;48.598;8.870;2023-08-24T01:44:26;0.00;;;0.00;;
23334;SDS011;11839;48.598;8.870;2023-08-24T01:46:55;0.08;;;0.08;;
23334;SDS011;11839;48.598;8.870;2023-08-24T01:49:25;0.00;;;0.00;;
23334;SDS011;11839;48.598;8.870;2023-08-24T01:51:53;0.00;;;0.00;;
23334;SDS011;11839;48.598;8.870;2023-08-24T01:54:20;0.05;;;0.05;;
23334;SDS011;11839;48.598;8.870;2023-08-24T01:56:47;0.00;;;0.00;;
23334;SDS011;11839;48.598;8.870;2023-08-24T01:59:15;0.00;;;0.00;;
23334;SDS011;11839;48.598;8.870;2023-08-24T02:01:42;0.00;;;0.00;;
23334;SDS011;11839;48.598;8.870;2023-08-24T02:04:09;0.00;;;0.00;;
23334;SDS011;11839;48.598;8.870;2023-08-24T02:06:35;0.00;;;0.00;;
23334;SDS011;11839;48.598;8.870;2023-08-24T02:09:02;0.10;;;0.10;;
23334;SDS011;11839;48.598;8.870;2023-08-24T02:11:29;0.10;;;0.10;;
23334;SDS011;11839;48.598;8.870;2023-08-24T02:13:56;0.00;;;0.00;;
23334;SDS011;11839;48.598;8.870;2023-08-24T02:16:24;0.00;;;0.00;;
23334;SDS011;11839;48.598;8.870;2023-08-24T02:18:50;0.00;;;0.00;;
23334;SDS011;11839;48.598;8.870;2023-08-24T02:21:17;0.00;;;0.00;;
23334;SDS011;11839;48.598;8.870;2023-08-24T02:23:44;0.00;;;0.00;;
23334;SDS011;11839;48.598;8.870;2023-08-24T02:26:11;0.00;;;0.00;;
23334;SDS011;11839;48.598;8.870;2023-08-24T02:28:37;0.00;;;0.00;;
23334;SDS011;11839;48.598;8.870;2023-08-24T02:31:05;0.00;;;0.00;;
23334;SDS011;11839;48.598;8.870;2023-08-24T02:33:33;0.10;;;0.10;;
23334;SDS011;11839;48.598;8.870;2023-08-24T02:36:00;0.00;;;0.00;;
23334;SDS011;11839;48.598;8.870;2023-08-24T02:38:27;0.05;;;0.05;;
23334;SDS011;11839;48.598;8.870;2023-08-24T02:41:00;0.22;;;0.22;;
23334;SDS011;11839;48.598;8.870;2023-08-24T02:43:28;0.00;;;0.00;;
23334;SDS011;11839;48.598;8.870;2023-08-24T02:45:59;0.00;;;0.00;;
23334;SDS011;11839;48.598;8.870;2023-08-24T02:48:26;0.00;;;0.00;;
23334;SDS011;11839;48.598;8.870;2023-08-24T02:50:54;0.00;;;0.00;;
23334;SDS011;11839;48.598;8.870;2023-08-24T02:53:22;67.03;;;3.45;;
23334;SDS011;11839;48.598;8.870;2023-08-24T02:55:48;0.00;;;0.00;;
23334;SDS011;11839;48.598;8.870;2023-08-24T02:58:15;0.00;;;0.00;;
23334;SDS011;11839;48.598;8.870;2023-08-24T03:00:42;0.65;;;0.65;;
23334;SDS011;11839;48.598;8.870;2023-08-24T03:03:09;54.47;;;0.90;;
23334;SDS011;11839;48.598;8.870;2023-08-24T03:05:35;0.15;;;0.15;;
23334;SDS011;11839;48.598;8.870;2023-08-24T03:08:04;0.00;;;0.00;;
23334;SDS011;11839;48.598;8.870;2023-08-24T03:10:31;0.00;;;0.00;;
23334;SDS011;11839;48.598;8.870;2023-08-24T03:13:00;0.00;;;0.00;;
23334;SDS011;11839;48.598;8.870;2023-08-24T03:15:29;0.00;;;0.00;;
23334;SDS011;11839;48.598;8.870;2023-08-24T03:17:56;0.10;;;0.10;;
23334;SDS011;11839;48.598;8.870;2023-08-24T03:20:22;2.05;;;0.90;;
23334;SDS011;11839;48.598;8.870;2023-08-24T03:22:49;0.00;;;0.00;;
23334;SDS011;11839;48.598;8.870;2023-08-24T03:25:18;0.00;;;0.00;;
23334;SDS011;11839;48.598;8.870;2023-08-24T03:27:44;0.00;;;0.00;;
23334;SDS011;11839;48.598;8.870;2023-08-24T03:30:12;0.00;;;0.00;;
23334;SDS011;11839;48.598;8.870;2023-08-24T03:32:40;0.00;;;0.00;;
23334;SDS011;11839;48.598;8.870;2023-08-24T03:35:07;0.00;;;0.00;;
23334;SDS011;11839;48.598;8.870;2023-08-24T03:37:34;0.00;;;0.00;;
23334;SDS011;11839;48.598;8.870;2023-08-24T03:40:01;0.00;;;0.00;;
23334;SDS011;11839;48.598;8.870;2023-08-24T03:42:30;0.20;;;0.20;;
23334;SDS011;11839;48.598;8.870;2023-08-24T03:44:58;0.00;;;0.00;;
23334;SDS011;11839;48.598;8.870;2023-08-24T03:47:25;0.00;;;0.00;;
23334;SDS011;11839;48.598;8.870;2023-08-24T03:49:52;0.00;;;0.00;;
23334;SDS011;11839;48.598;8.870;2023-08-24T03:52:20;0.00;;;0.00;;
23334;SDS011;11839;48.598;8.870;2023-08-24T03:54:46;0.00;;;0.00;;
23334;SDS011;11839;48.598;8.870;2023-08-24T03:57:13;0.00;;;0.00;;
23334;SDS011;11839;48.598;8.870;2023-08-24T03:59:41;0.00;;;0.00;;
23334;SDS011;11839;48.598;8.870;2023-08-24T04:02:08;0.10;;;0.10;;
23334;SDS011;11839;48.598;8.870;2023-08-24T04:04:35;0.00;;;0.00;;
23334;SDS011;11839;48.598;8.870;2023-08-24T04:07:02;0.00;;;0.00;;
23334;SDS011;11839;48.598;8.870;2023-08-24T04:09:29;0.00;;;0.00;;
23334;SDS011;11839;48.598;8.870;2023-08-24T04:11:55;0.00;;;0.00;;
23334;SDS011;11839;48.598;8.870;2023-08-24T04:14:22;0.00;;;0.00;;
23334;SDS011;11839;48.598;8.870;2023-08-24T04:16:50;0.00;;;0.00;;
23334;SDS011;11839;48.598;8.870;2023-08-24T04:19:17;0.00;;;0.00;;
23334;SDS011;11839;48.598;8.870;2023-08-24T04:21:44;0.00;;;0.00;;
23334;SDS011;11839;48.598;8.870;2023-08-24T04:24:11;0.00;;;0.00;;
23334;SDS011;11839;48.598;8.870;2023-08-24T04:26:37;2.08;;;1.55;;
23334;SDS011;11839;48.598;8.870;2023-08-24T04:29:04;0.00;;;0.00;;
23334;SDS011;11839;48.598;8.870;2023-08-24T04:31:31;0.00;;;0.00;;
23334;SDS011;11839;48.598;8.870;2023-08-24T04:33:59;0.00;;;0.00;;
23334;SDS011;11839;48.598;8.870;2023-08-24T04:36:26;0.00;;;0.00;;
23334;SDS011;11839;48.598;8.870;2023-08-24T04:38:52;0.00;;;0.00;;
23334;SDS011;11839;48.598;8.870;2023-08-24T04:41:19;0.00;;;0.00;;
23334;SDS011;11839;48.598;8.870;2023-08-24T04:43:46;0.10;;;0.10;;
23334;SDS011;11839;48.598;8.870;2023-08-24T04:46:13;0.00;;;0.00;;
23334;SDS011;11839;48.598;8.870;2023-08-24T04:48:39;0.00;;;0.00;;
23334;SDS011;11839;48.598;8.870;2023-08-24T04:51:07;0.00;;;0.00;;
23334;SDS011;11839;48.598;8.870;2023-08-24T04:53:35;0.00;;;0.00;;
23334;SDS011;11839;48.598;8.870;2023-08-24T04:56:01;0.00;;;0.00;;
23334;SDS011;11839;48.598;8.870;2023-08-24T04:58:28;0.00;;;0.00;;
23334;SDS011;11839;48.598;8.870;2023-08-24T05:00:55;0.00;;;0.00;;
23334;SDS011;11839;48.598;8.870;2023-08-24T05:03:22;0.00;;;0.00;;
23334;SDS011;11839;48.598;8.870;2023-08-24T05:05:48;0.00;;;0.00;;
23334;SDS011;11839;48.598;8.870;2023-08-24T05:08:17;0.00;;;0.00;;
23334;SDS011;11839;48.598;8.870;2023-08-24T05:10:43;0.00;;;0.00;;
23334;SDS011;11839;48.598;8.870;2023-08-24T05:13:10;0.00;;;0.00;;
23334;SDS011;11839;48.598;8.870;2023-08-24T05:15:37;0.00;;;0.00;;
23334;SDS011;11839;48.598;8.870;2023-08-24T05:18:04;0.00;;;0.00;;
23334;SDS011;11839;48.598;8.870;2023-08-24T05:20:31;0.00;;;0.00;;
23334;SDS011;11839;48.598;8.870;2023-08-24T05:22:58;0.00;;;0.00;;
23334;SDS011;11839;48.598;8.870;2023-08-24T05:25:26;0.00;;;0.00;;
23334;SDS011;11839;48.598;8.870;2023-08-24T05:27:53;0.00;;;0.00;;
23334;SDS011;11839;48.598;8.870;2023-08-24T05:30:20;0.00;;;0.00;;
23334;SDS011;11839;48.598;8.870;2023-08-24T05:32:47;0.00;;;0.00;;
23334;SDS011;11839;48.598;8.870;2023-08-24T05:35:13;0.00;;;0.00;;
23334;SDS011;11839;48.598;8.870;2023-08-24T05:37:40;0.00;;;0.00;;
23334;SDS011;11839;48.598;8.870;2023-08-24T05:40:07;0.00;;;0.00;;
23334;SDS011;11839;48.598;8.870;2023-08-24T05:42:36;0.00;;;0.00;;
23334;SDS011;11839;48.598;8.870;2023-08-24T05:45:03;0.00;;;0.00;;
23334;SDS011;11839;48.598;8.870;2023-08-24T05:47:30;0.00;;;0.00;;
23334;SDS011;11839;48.598;8.870;2023-08-24T05:49:57;0.00;;;0.00;;
23334;SDS011;11839;48.598;8.870;2023-08-24T05:52:23;0.00;;;0.00;;
23334;SDS011;11839;48.598;8.870;2023-08-24T05:54:50;0.00;;;0.00;;
23334;SDS011;11839;48.598;8.870;2023-08-24T05:57:17;0.00;;;0.00;;
23334;SDS011;11839;48.598;8.870;2023-08-24T05:59:45;0.00;;;0.00;;
23334;SDS011;11839;48.598;8.870;2023-08-24T06:02:12;0.10;;;0.10;;
23334;SDS011;11839;48.598;8.870;2023-08-24T06:04:39;0.00;;;0.00;;
23334;SDS011;11839;48.598;8.870;2023-08-24T06:07:05;0.00;;;0.00;;
23334;SDS011;11839;48.598;8.870;2023-08-24T06:09:32;0.10;;;0.10;;
23334;SDS011;11839;48.598;8.870;2023-08-24T06:11:59;0.00;;;0.00;;
23334;SDS011;11839;48.598;8.870;2023-08-24T06:14:26;0.00;;;0.00;;
23334;SDS011;11839;48.598;8.870;2023-08-24T06:16:54;0.00;;;0.00;;
23334;SDS011;11839;48.598;8.870;2023-08-24T06:19:21;0.00;;;0.00;;
23334;SDS011;11839;48.598;8.870;2023-08-24T06:21:48;0.00;;;0.00;;
23334;SDS011;11839;48.598;8.870;2023-08-24T06:24:14;0.00;;;0.00;;
23334;SDS011;11839;48.598;8.870;2023-08-24T06:26:41;0.00;;;0.00;;
23334;SDS011;11839;48.598;8.870;2023-08-24T06:29:08;0.00;;;0.00;;
23334;SDS011;11839;48.598;8.870;2023-08-24T06:31:35;0.00;;;0.00;;
23334;SDS011;11839;48.598;8.870;2023-08-24T06:34:03;0.00;;;0.00;;
23334;SDS011;11839;48.598;8.870;2023-08-24T06:36:30;0.00;;;0.00;;
23334;SDS011;11839;48.598;8.870;2023-08-24T06:38:56;0.00;;;0.00;;
23334;SDS011;11839;48.598;8.870;2023-08-24T06:41:23;0.00;;;0.00;;
23334;SDS011;11839;48.598;8.870;2023-08-24T06:43:50;0.10;;;0.10;;
23334;SDS011;11839;48.598;8.870;2023-08-24T06:46:19;0.10;;;0.10;;
23334;SDS011;11839;48.598;8.870;2023-08-24T06:48:47;0.00;;;0.00;;
23334;SDS011;11839;48.598;8.870;2023-08-24T06:51:15;0.08;;;0.08;;
23334;SDS011;11839;48.598;8.870;2023-08-24T06:53:42;0.00;;;0.00;;
23334;SDS011;11839;48.598;8.870;2023-08-24T06:56:08;0.00;;;0.00;;
23334;SDS011;11839;48.598;8.870;2023-08-24T06:58:35;0.00;;;0.00;;
23334;SDS011;11839;48.598;8.870;2023-08-24T07:01:02;0.43;;;0.43;;
23334;SDS011;11839;48.598;8.870;2023-08-24T07:03:31;0.00;;;0.00;;
23334;SDS011;11839;48.598;8.870;2023-08-24T07:05:58;0.00;;;0.00;;
23334;SDS011;11839;48.598;8.870;2023-08-24T07:08:29;0.00;;;0.00;;
23334;SDS011;11839;48.598;8.870;2023-08-24T07:10:56;0.00;;;0.00;;
23334;SDS011;11839;48.598;8.870;2023-08-24T07:13:23;26.58;;;1.92;;
23334;SDS011;11839;48.598;8.870;2023-08-24T07:15:51;0.00;;;0.00;;
23334;SDS011;11839;48.598;8.870;2023-08-24T07:18:18;0.00;;;0.00;;
23334;SDS011;11839;48.598;8.870;2023-08-24T07:20:45;0.00;;;0.00;;
23334;SDS011;11839;48.598;8.870;2023-08-24T07:23:12;0.10;;;0.10;;
23334;SDS011;11839;48.598;8.870;2023-08-24T07:25:40;0.00;;;0.00;;
23334;SDS011;11839;48.598;8.870;2023-08-24T07:28:07;0.10;;;0.10;;
23334;SDS011;11839;48.598;8.870;2023-08-24T07:30:35;0.00;;;0.00;;
23334;SDS011;11839;48.598;8.870;2023-08-24T07:33:02;0.10;;;0.10;;
23334;SDS011;11839;48.598;8.870;2023-08-24T07:35:29;0.10;;;0.10;;
23334;SDS011;11839;48.598;8.870;2023-08-24T07:37:56;0.10;;;0.10;;
23334;SDS011;11839;48.598;8.870;2023-08-24T07:40:23;1.08;;;1.08;;
23334;SDS011;11839;48.598;8.870;2023-08-24T07:42:53;0.10;;;0.10;;
23334;SDS011;11839;48.598;8.870;2023-08-24T07:45:21;0.00;;;0.00;;
23334;SDS011;11839;48.598;8.870;2023-08-24T07:47:49;0.00;;;0.00;;
23334;SDS011;11839;48.598;8.870;2023-08-24T07:50:16;0.10;;;0.10;;
23334;SDS011;11839;48.598;8.870;2023-08-24T07:52:42;0.00;;;0.00;;
23334;SDS011;11839;48.598;8.870;2023-08-24T07:55:09;0.00;;;0.00;;
23334;SDS011;11839;48.598;8.870;2023-08-24T07:57:36;0.10;;;0.10;;
23334;SDS011;11839;48.598;8.870;2023-08-24T08:00:05;0.05;;;0.05;;
23334;SDS011;11839;48.598;8.870;2023-08-24T08:02:34;0.00;;;0.00;;
23334;SDS011;11839;48.598;8.870;2023-08-24T08:05:02;0.03;;;0.03;;
23334;SDS011;11839;48.598;8.870;2023-08-24T08:07:29;0.00;;;0.00;;
23334;SDS011;11839;48.598;8.870;2023-08-24T08:09:56;0.10;;;0.10;;
23334;SDS011;11839;48.598;8.870;2023-08-24T08:12:23;0.03;;;0.03;;
23334;SDS011;11839;48.598;8.870;2023-08-24T08:14:50;0.10;;;0.10;;
23334;SDS011;11839;48.598;8.870;2023-08-24T08:17:18;0.10;;;0.10;;
23334;SDS011;11839;48.598;8.870;2023-08-24T08:19:44;0.10;;;0.10;;
23334;SDS011;11839;48.598;8.870;2023-08-24T08:22:12;0.10;;;0.10;;
23334;SDS011;11839;48.598;8.870;2023-08-24T08:24:38;0.68;;;0.68;;
23334;SDS011;11839;48.598;8.870;2023-08-24T08:27:05;0.10;;;0.10;;
23334;SDS011;11839;48.598;8.870;2023-08-24T08:29:32;0.03;;;0.03;;
23334;SDS011;11839;48.598;8.870;2023-08-24T08:31:59;0.10;;;0.10;;
23334;SDS011;11839;48.598;8.870;2023-08-24T08:34:27;0.10;;;0.10;;
23334;SDS011;11839;48.598;8.870;2023-08-24T08:36:54;0.00;;;0.00;;
23334;SDS011;11839;48.598;8.870;2023-08-24T08:39:21;0.10;;;0.10;;
23334;SDS011;11839;48.598;8.870;2023-08-24T08:41:48;0.03;;;0.03;;
23334;SDS011;11839;48.598;8.870;2023-08-24T08:44:15;0.00;;;0.00;;
23334;SDS011;11839;48.598;8.870;2023-08-24T08:46:42;0.10;;;0.10;;
23334;SDS011;11839;48.598;8.870;2023-08-24T08:49:11;0.10;;;0.10;;
23334;SDS011;11839;48.598;8.870;2023-08-24T08:51:42;0.03;;;0.03;;
23334;SDS011;11839;48.598;8.870;2023-08-24T08:54:09;0.00;;;0.00;;
23334;SDS011;11839;48.598;8.870;2023-08-24T08:56:37;0.05;;;0.05;;
23334;SDS011;11839;48.598;8.870;2023-08-24T08:59:04;0.00;;;0.00;;
23334;SDS011;11839;48.598;8.870;2023-08-24T09:01:34;0.05;;;0.05;;
23334;SDS011;11839;48.598;8.870;2023-08-24T09:04:02;0.10;;;0.10;;
23334;SDS011;11839;48.598;8.870;2023-08-24T09:06:29;0.05;;;0.05;;
23334;SDS011;11839;48.598;8.870;2023-08-24T09:08:59;0.10;;;0.10;;
23334;SDS011;11839;48.598;8.870;2023-08-24T09:11:26;0.10;;;0.10;;
23334;SDS011;11839;48.598;8.870;2023-08-24T09:13:53;0.10;;;0.10;;
23334;SDS011;11839;48.598;8.870;2023-08-24T09:16:20;0.10;;;0.10;;
23334;SDS011;11839;48.598;8.870;2023-08-24T09:18:47;0.20;;;0.20;;
23334;SDS011;11839;48.598;8.870;2023-08-24T09:21:14;0.10;;;0.10;;
23334;SDS011;11839;48.598;8.870;2023-08-24T09:23:43;0.10;;;0.10;;
23334;SDS011;11839;48.598;8.870;2023-08-24T09:26:12;0.10;;;0.10;;
23334;SDS011;11839;48.598;8.870;2023-08-24T09:28:41;0.10;;;0.10;;
23334;SDS011;11839;48.598;8.870;2023-08-24T09:31:11;0.10;;;0.10;;
23334;SDS011;11839;48.598;8.870;2023-08-24T09:33:38;0.05;;;0.05;;
23334;SDS011;11839;48.598;8.870;2023-08-24T09:36:05;0.03;;;0.03;;
23334;SDS011;11839;48.598;8.870;2023-08-24T09:38:33;0.10;;;0.10;;
23334;SDS011;11839;48.598;8.870;2023-08-24T09:41:01;0.00;;;0.00;;
23334;SDS011;11839;48.598;8.870;2023-08-24T09:43:29;0.00;;;0.00;;
23334;SDS011;11839;48.598;8.870;2023-08-24T09:45:56;0.00;;;0.00;;
23334;SDS011;11839;48.598;8.870;2023-08-24T09:48:24;0.03;;;0.03;;
23334;SDS011;11839;48.598;8.870;2023-08-24T09:50:51;0.05;;;0.05;;
23334;SDS011;11839;48.598;8.870;2023-08-24T09:53:19;0.10;;;0.10;;
23334;SDS011;11839;48.598;8.870;2023-08-24T09:55:49;0.10;;;0.10;;
23334;SDS011;11839;48.598;8.870;2023-08-24T09:58:20;0.10;;;0.10;;
23334;SDS011;11839;48.598;8.870;2023-08-24T10:00:49;0.00;;;0.00;;
23334;SDS011;11839;48.598;8.870;2023-08-24T10:03:17;0.10;;;0.10;;
23334;SDS011;11839;48.598;8.870;2023-08-24T10:05:47;0.10;;;0.10;;
23334;SDS011;11839;48.598;8.870;2023-08-24T10:08:16;0.10;;;0.10;;
23334;SDS011;11839;48.598;8.870;2023-08-24T10:10:47;0.10;;;0.10;;
23334;SDS011;11839;48.598;8.870;2023-08-24T10:13:18;0.10;;;0.10;;
23334;SDS011;11839;48.598;8.870;2023-08-24T10:15:51;0.10;;;0.10;;
23334;SDS011;11839;48.598;8.870;2023-08-24T10:18:18;0.10;;;0.10;;
23334;SDS011;11839;48.598;8.870;2023-08-24T10:20:48;0.10;;;0.10;;
23334;SDS011;11839;48.598;8.870;2023-08-24T10:23:16;0.03;;;0.03;;
23334;SDS011;11839;48.598;8.870;2023-08-24T10:25:45;0.00;;;0.00;;
23334;SDS011;11839;48.598;8.870;2023-08-24T10:28:13;0.03;;;0.03;;
23334;SDS011;11839;48.598;8.870;2023-08-24T10:30:41;0.00;;;0.00;;
23334;SDS011;11839;48.598;8.870;2023-08-24T10:33:10;0.10;;;0.10;;
23334;SDS011;11839;48.598;8.870;2023-08-24T10:35:38;149.80;;;43.97;;
23334;SDS011;11839;48.598;8.870;2023-08-24T10:38:06;0.10;;;0.10;;
23334;SDS011;11839;48.598;8.870;2023-08-24T10:40:33;0.10;;;0.10;;
23334;SDS011;11839;48.598;8.870;2023-08-24T10:43:04;0.00;;;0.00;;
23334;SDS011;11839;48.598;8.870;2023-08-24T10:48:23;0.10;;;0.10;;
23334;SDS011;11839;48.598;8.870;2023-08-24T10:53:47;0.10;;;0.10;;
23334;SDS011;11839;48.598;8.870;2023-08-24T10:56:18;0.10;;;0.10;;
23334;SDS011;11839;48.598;8.870;2023-08-24T10:58:45;0.00;;;0.00;;
23334;SDS011;11839;48.598;8.870;2023-08-24T11:01:16;0.00;;;0.00;;
23334;SDS011;11839;48.598;8.870;2023-08-24T11:03:49;0.10;;;0.10;;
23334;SDS011;11839;48.598;8.870;2023-08-24T11:06:17;0.10;;;0.10;;
23334;SDS011;11839;48.598;8.870;2023-08-24T11:08:44;0.10;;;0.10;;
23334;SDS011;11839;48.598;8.870;2023-08-24T11:11:18;96.03;;;6.30;;
23334;SDS011;11839;48.598;8.870;2023-08-24T11:16:41;0.10;;;0.10;;
23334;SDS011;11839;48.598;8.870;2023-08-24T11:19:11;0.10;;;0.10;;
23334;SDS011;11839;48.598;8.870;2023-08-24T11:21:38;0.00;;;0.00;;
23334;SDS011;11839;48.598;8.870;2023-08-24T11:24:06;0.00;;;0.00;;
23334;SDS011;11839;48.598;8.870;2023-08-24T11:26:33;0.10;;;0.10;;
23334;SDS011;11839;48.598;8.870;2023-08-24T11:29:04;0.10;;;0.10;;
23334;SDS011;11839;48.598;8.870;2023-08-24T11:31:32;0.00;;;0.00;;
23334;SDS011;11839;48.598;8.870;2023-08-24T11:34:00;0.10;;;0.10;;
23334;SDS011;11839;48.598;8.870;2023-08-24T11:36:29;0.08;;;0.08;;
23334;SDS011;11839;48.598;8.870;2023-08-24T11:38:57;0.10;;;0.10;;
23334;SDS011;11839;48.598;8.870;2023-08-24T11:41:24;0.10;;;0.10;;
23334;SDS011;11839;48.598;8.870;2023-08-24T11:43:58;0.00;;;0.00;;
23334;SDS011;11839;48.598;8.870;2023-08-24T11:46:25;0.05;;;0.05;;
23334;SDS011;11839;48.598;8.870;2023-08-24T11:48:54;0.10;;;0.10;;
23334;SDS011;11839;48.598;8.870;2023-08-24T11:51:22;0.10;;;0.10;;
23334;SDS011;11839;48.598;8.870;2023-08-24T11:53:50;0.00;;;0.00;;
23334;SDS011;11839;48.598;8.870;2023-08-24T11:56:18;0.05;;;0.05;;
23334;SDS011;11839;48.598;8.870;2023-08-24T11:58:48;0.00;;;0.00;;
23334;SDS011;11839;48.598;8.870;2023-08-24T12:01:16;0.10;;;0.10;;
23334;SDS011;11839;48.598;8.870;2023-08-24T12:03:43;0.00;;;0.00;;
23334;SDS011;11839;48.598;8.870;2023-08-24T12:06:11;0.10;;;0.10;;
23334;SDS011;11839;48.598;8.870;2023-08-24T12:08:39;0.10;;;0.10;;
23334;SDS011;11839;48.598;8.870;2023-08-24T12:11:12;0.10;;;0.10;;
23334;SDS011;11839;48.598;8.870;2023-08-24T12:13:42;0.10;;;0.10;;
23334;SDS011;11839;48.598;8.870;2023-08-24T12:16:10;0.00;;;0.00;;
23334;SDS011;11839;48.598;8.870;2023-08-24T12:18:46;0.10;;;0.10;;
23334;SDS011;11839;48.598;8.870;2023-08-24T12:21:14;0.10;;;0.10;;
23334;SDS011;11839;48.598;8.870;2023-08-24T12:23:41;0.08;;;0.08;;
23334;SDS011;11839;48.598;8.870;2023-08-24T12:26:08;0.00;;;0.00;;
23334;SDS011;11839;48.598;8.870;2023-08-24T12:28:48;0.03;;;0.03;;
23334;SDS011;11839;48.598;8.870;2023-08-24T12:31:16;0.00;;;0.00;;
23334;SDS011;11839;48.598;8.870;2023-08-24T12:33:43;0.10;;;0.10;;
23334;SDS011;11839;48.598;8.870;2023-08-24T12:36:10;0.00;;;0.00;;
23334;SDS011;11839;48.598;8.870;2023-08-24T12:38:37;0.08;;;0.08;;
23334;SDS011;11839;48.598;8.870;2023-08-24T12:41:06;0.20;;;0.20;;
23334;SDS011;11839;48.598;8.870;2023-08-24T12:43:33;0.00;;;0.00;;
23334;SDS011;11839;48.598;8.870;2023-08-24T12:46:01;0.10;;;0.10;;
23334;SDS011;11839;48.598;8.870;2023-08-24T12:48:29;0.10;;;0.10;;
23334;SDS011;11839;48.598;8.870;2023-08-24T12:50:55;0.10;;;0.10;;
23334;SDS011;11839;48.598;8.870;2023-08-24T12:53:22;0.05;;;0.05;;
23334;SDS011;11839;48.598;8.870;2023-08-24T12:55:49;0.08;;;0.08;;
23334;SDS011;11839;48.598;8.870;2023-08-24T12:58:16;0.10;;;0.10;;
23334;SDS011;11839;48.598;8.870;2023-08-24T13:00:43;0.03;;;0.03;;
23334;SDS011;11839;48.598;8.870;2023-08-24T13:03:11;0.00;;;0.00;;
23334;SDS011;11839;48.598;8.870;2023-08-24T13:05:39;0.10;;;0.10;;
23334;SDS011;11839;48.598;8.870;2023-08-24T13:08:05;0.00;;;0.00;;
23334;SDS011;11839;48.598;8.870;2023-08-24T13:10:32;0.08;;;0.08;;
23334;SDS011;11839;48.598;8.870;2023-08-24T13:13:01;0.10;;;0.10;;
23334;SDS011;11839;48.598;8.870;2023-08-24T13:15:28;0.10;;;0.10;;
23334;SDS011;11839;48.598;8.870;2023-08-24T13:17:55;0.00;;;0.00;;
23334;SDS011;11839;48.598;8.870;2023-08-24T13:20:24;0.10;;;0.10;;
23334;SDS011;11839;48.598;8.870;2023-08-24T13:22:51;0.10;;;0.10;;
23334;SDS011;11839;48.598;8.870;2023-08-24T13:25:18;0.08;;;0.08;;
23334;SDS011;11839;48.598;8.870;2023-08-24T13:27:44;0.10;;;0.10;;
23334;SDS011;11839;48.598;8.870;2023-08-24T13:30:11;0.00;;;0.00;;
23334;SDS011;11839;48.598;8.870;2023-08-24T13:32:39;0.10;;;0.10;;
23334;SDS011;11839;48.598;8.870;2023-08-24T13:35:07;0.10;;;0.10;;
23334;SDS011;11839;48.598;8.870;2023-08-24T13:37:36;0.00;;;0.00;;
23334;SDS011;11839;48.598;8.870;2023-08-24T13:40:03;0.08;;;0.08;;
23334;SDS011;11839;48.598;8.870;2023-08-24T13:42:32;0.00;;;0.00;;
23334;SDS011;11839;48.598;8.870;2023-08-24T13:44:59;0.10;;;0.10;;
23334;SDS011;11839;48.598;8.870;2023-08-24T13:47:26;0.10;;;0.10;;
23334;SDS011;11839;48.598;8.870;2023-08-24T13:49:52;0.00;;;0.00;;
23334;SDS011;11839;48.598;8.870;2023-08-24T13:52:19;0.08;;;0.08;;
23334;SDS011;11839;48.598;8.870;2023-08-24T13:54:47;0.00;;;0.00;;
23334;SDS011;11839;48.598;8.870;2023-08-24T13:57:14;0.10;;;0.10;;
23334;SDS011;11839;48.598;8.870;2023-08-24T13:59:41;0.00;;;0.00;;
23334;SDS011;11839;48.598;8.870;2023-08-24T14:02:08;0.10;;;0.10;;
23334;SDS011;11839;48.598;8.870;2023-08-24T14:04:36;0.00;;;0.00;;
23334;SDS011;11839;48.598;8.870;2023-08-24T14:07:03;0.00;;;0.00;;
23334;SDS011;11839;48.598;8.870;2023-08-24T14:09:30;0.00;;;0.00;;
23334;SDS011;11839;48.598;8.870;2023-08-24T14:11:59;0.05;;;0.05;;
23334;SDS011;11839;48.598;8.870;2023-08-24T14:14:25;0.10;;;0.10;;
23334;SDS011;11839;48.598;8.870;2023-08-24T14:16:55;0.10;;;0.10;;
23334;SDS011;11839;48.598;8.870;2023-08-24T14:19:23;0.00;;;0.00;;
23334;SDS011;11839;48.598;8.870;2023-08-24T14:21:50;0.08;;;0.08;;
23334;SDS011;11839;48.598;8.870;2023-08-24T14:24:17;0.10;;;0.10;;
23334;SDS011;11839;48.598;8.870;2023-08-24T14:26:44;0.00;;;0.00;;
23334;SDS011;11839;48.598;8.870;2023-08-24T14:29:13;0.00;;;0.00;;
23334;SDS011;11839;48.598;8.870;2023-08-24T14:31:40;0.00;;;0.00;;
23334;SDS011;11839;48.598;8.870;2023-08-24T14:34:06;1.10;;;1.10;;
23334;SDS011;11839;48.598;8.870;2023-08-24T14:36:33;0.05;;;0.05;;
23334;SDS011;11839;48.598;8.870;2023-08-24T14:39:00;0.35;;;0.35;;
23334;SDS011;11839;48.598;8.870;2023-08-24T14:41:27;0.10;;;0.10;;
23334;SDS011;11839;48.598;8.870;2023-08-24T14:43:54;0.03;;;0.03;;
23334;SDS011;11839;48.598;8.870;2023-08-24T14:46:22;103.63;;;4.57;;
23334;SDS011;11839;48.598;8.870;2023-08-24T14:48:49;0.00;;;0.00;;
23334;SDS011;11839;48.598;8.870;2023-08-24T14:51:16;0.10;;;0.10;;
23334;SDS011;11839;48.598;8.870;2023-08-24T14:53:42;165.85;;;8.77;;
23334;SDS011;11839;48.598;8.870;2023-08-24T14:56:09;553.83;;;20.23;;
23334;SDS011;11839;48.598;8.870;2023-08-24T14:58:36;653.50;;;26.00;;